Thursday, July 28, 2016, 2:36 AM EDT

KSBY, Salisbury-wicomico Cty Reg

Location: Salisbury, MD, United States Lat: 38.333
Local Time: 2:36 AM EDT ( 6:36 GMT) Lon: -75.5
Time Zone: US/Eastern Elev: 52 ft

Show me the last for .
Show Decoded

2016-07-28 01:54 METAR KSBY 280554Z AUTO 00000KT 4SM BR CLR 26/25 A2991 RMK AO2 SLP129 T02560250
                 10283 20256 56002 =
2016-07-28 00:54 METAR KSBY 280454Z AUTO 00000KT 4SM BR CLR 26/25 A2991 RMK AO2 SLP130 T02610250
                 403280239 =
2016-07-27 23:54 METAR KSBY 280354Z AUTO 13003KT 5SM BR CLR 27/26 A2991 RMK AO2 SLP129 T02670256
                 =
2016-07-27 22:54 METAR KSBY 280254Z AUTO 00000KT 6SM BR CLR 27/26 A2991 RMK AO2 SLP131 T02670256
                 53006 =
2016-07-27 21:54 METAR KSBY 280154Z 13003KT 8SM CLR 28/26 A2991 RMK AO2 SLP130 T02780261 =
2016-07-27 20:54 METAR KSBY 280054Z 00000KT 9SM CLR 28/26 A2989 RMK AO2 SLP124 T02780261 =
2016-07-27 19:54 METAR KSBY 272354Z 21003KT 10SM CLR 28/26 A2990 RMK AO2 SLP125 T02830261 10328
                 20283 54000 =
2016-07-27 18:54 METAR KSBY 272254Z 00000KT 10SM CLR 30/25 A2990 RMK AO2 SLP126 T03000250 =
2016-07-27 17:54 METAR KSBY 272154Z 23003KT 10SM CLR 30/24 A2989 RMK AO2 SLP124 T03000244 =
2016-07-27 16:54 METAR KSBY 272054Z 21004KT 10SM CLR 29/23 A2990 RMK AO2 SLP125 T02940233 58009 =
2016-07-27 15:54 METAR KSBY 271954Z 15009KT 10SM FEW050 29/24 A2992 RMK AO2 TSB26E46 SLP134
                 T02940239 =
2016-07-27 15:47 METAR KSBY 271947Z 15009KT 10SM SCT050 29/24 A2992 RMK AO2 TSB26E46 T02890239 =
2016-07-27 15:32 METAR KSBY 271932Z 16010KT 10SM TS BKN050 31/24 A2992 RMK AO2 TSB26 T03060244 =
2016-07-27 14:54 METAR KSBY 271854Z 15008KT 10SM BKN045 BKN060 OVC090 29/24 A2992 RMK AO2 SLP134
                 T02890239 =
2016-07-27 13:54 METAR KSBY 271754Z 27008KT 10SM SCT035 BKN047 BKN060 32/24 A2992 RMK AO2 LTG
                 DSNT SE SLP134 60007 T03170244 10328 20244 58006 =
2016-07-27 12:54 METAR KSBY 271654Z 28007KT 10SM CLR 32/24 A2992 RMK AO2 LTG DSNT E AND SE SLP134
                 T03220244 =
2016-07-27 12:41 METAR KSBY 271641Z 30008KT 10SM CLR 32/24 A2993 RMK AO2 LTG DSNT E AND SE
                 T03220244 =
2016-07-27 12:18 METAR KSBY 271618Z 26006KT 10SM VCTS FEW028 32/25 A2994 RMK AO2 LTG DSNT SE
                 T03170250 =
2016-07-27 11:54 METAR KSBY 271554Z 00000KT 10SM FEW022 SCT070 SCT090 32/26 A2994 RMK AO2 SLP141
                 T03170256 =
2016-07-27 10:54 METAR KSBY 271454Z 00000KT 10SM SCT060 30/25 A2994 RMK AO2 SLP140 60007
                 T03000250 55004 =
2016-07-27 09:54 METAR KSBY 271354Z 00000KT 10SM BKN090 28/25 A2993 RMK AO2 RAB18E31 SLP137 P0000
                 T02830250 =
2016-07-27 08:54 METAR KSBY 271254Z 18003KT 7SM FEW060 SCT080 BKN100 26/25 A2994 RMK AO2 RAE53
                 SLP141 P0007 T02610250 =
2016-07-27 08:09 METAR KSBY 271209Z 10006KT 7SM -RA FEW046 BKN070 OVC090 24/23 A2994 RMK AO2
                 P0006 T02440233 =
2016-07-27 08:01 METAR KSBY 271201Z 02007KT 1 3/4SM +RA BR SCT046 BKN070 OVC090 25/23 A2995 RMK
                 AO2 P0005 T02500233 =
2016-07-27 07:54 METAR KSBY 271154Z 34006KT 4SM RA BR FEW039 BKN070 OVC100 26/24 A2995 RMK AO2
                 RAB10 SLP145 P0001 60002 70002 T02610244 10261 20239 53011 =
2016-07-27 06:54 METAR KSBY 271054Z 00000KT 4SM BR OVC075 26/25 A2993 RMK AO2 LTG DSNT S AND SW
                 RAB0957E39 SLP136 P0001 T02560250 =
2016-07-27 05:54 METAR KSBY 270954Z 00000KT 6SM BR SCT090 BKN110 25/24 A2993 RMK AO2 RAB25E45
                 SLP135 P0000 T02500244 =
2016-07-27 04:54 METAR KSBY 270854Z AUTO 00000KT 10SM SCT070 BKN095 24/24 A2992 RMK AO2 SLP132
                 T02440239 50002 =
2016-07-27 03:54 METAR KSBY 270754Z AUTO 00000KT 10SM BKN075 OVC090 25/23 A2992 RMK AO2 SLP134
                 T02500233 =
2016-07-27 02:54 METAR KSBY 270654Z AUTO 00000KT 10SM OVC070 24/23 A2992 RMK AO2 SLP134 T02440233
                 =

Support USWX by starting your Amazon purchase here.